Aviation Digital Data Service (ADDS)

Output produced by TAFs form (0930 UTC 26 October 2014)
found at http://www.aviationweather.gov/adds/tafs/
 
KALB 260727Z 2607/2706 25010KT P6SM BKN040 BKN070 
     FM261000 28012G18KT P6SM SCT040 
     FM261400 29015G25KT P6SM VCSH SCT025 OVC040 
     FM261700 30017G27KT P6SM SCT025 OVC040 
     FM262200 29012G22KT P6SM BKN050 
     FM270200 29010KT P6SM BKN050